createdAt,value
2018-10-09T00:02:05.925Z,18.23
2018-10-09T00:04:39.805Z,18.87
2018-10-09T00:07:13.462Z,20.53
2018-10-09T00:09:47.442Z,18.30
2018-10-09T00:12:21.037Z,18.92
2018-10-09T00:14:54.566Z,15.25
2018-10-09T00:17:28.355Z,17.65
2018-10-09T00:25:01.908Z,15.03
2018-10-09T00:27:35.955Z,19.42
2018-10-09T00:30:10.247Z,18.50
2018-10-09T00:32:44.003Z,19.45
2018-10-09T00:35:18.211Z,18.53
2018-10-09T00:37:52.056Z,17.17
2018-10-09T00:40:26.156Z,14.97
2018-10-09T00:42:59.954Z,15.60
2018-10-09T00:45:34.616Z,17.13
2018-10-09T00:48:08.554Z,15.90
2018-10-09T00:50:42.404Z,13.40
2018-10-09T00:53:16.393Z,14.90
2018-10-09T00:55:50.602Z,15.00
2018-10-09T00:58:24.450Z,12.33
2018-10-09T01:00:58.262Z,12.07
2018-10-09T01:03:31.873Z,13.77
2018-10-09T01:06:05.519Z,11.90
2018-10-09T01:08:39.468Z,11.33
2018-10-09T01:11:13.721Z,14.25
2018-10-09T01:13:47.406Z,13.00
2018-10-09T01:16:21.341Z,10.70
2018-10-09T01:18:55.201Z,12.43
2018-10-09T01:21:29.117Z,11.67
2018-10-09T01:24:02.878Z,10.10
2018-10-09T01:26:36.538Z,9.83
2018-10-09T01:29:09.979Z,10.70
2018-10-09T01:31:43.896Z,9.05
2018-10-09T01:34:17.647Z,9.40
2018-10-09T01:36:51.518Z,9.13
2018-10-09T01:39:25.386Z,7.80
2018-10-09T01:41:58.782Z,9.97
2018-10-09T01:44:32.502Z,8.83
2018-10-09T01:47:08.376Z,7.27
2018-10-09T01:49:42.396Z,7.00
2018-10-09T01:52:16.425Z,7.33
2018-10-09T01:54:50.262Z,8.17
2018-10-09T01:57:24.293Z,6.30
2018-10-09T01:59:58.279Z,7.13
2018-10-09T02:02:32.976Z,6.37
2018-10-09T02:05:06.829Z,6.77
2018-10-09T02:07:40.439Z,7.00
2018-10-09T02:10:14.389Z,6.77
2018-10-09T02:12:48.479Z,7.27
2018-10-09T02:15:22.374Z,6.40
2018-10-09T02:17:56.722Z,6.87
2018-10-09T02:20:30.805Z,6.95
2018-10-09T02:23:04.698Z,7.43
2018-10-09T02:25:38.590Z,8.18
2018-10-09T02:28:12.633Z,7.60
2018-10-09T02:30:46.375Z,8.70
2018-10-09T02:33:20.326Z,6.97
2018-10-09T02:35:54.181Z,7.28
2018-10-09T02:38:27.950Z,7.83
2018-10-09T02:41:02.265Z,7.20
2018-10-09T02:43:36.231Z,7.20
2018-10-09T02:46:10.042Z,7.00
2018-10-09T02:48:44.522Z,7.77
2018-10-09T02:51:18.196Z,7.43
2018-10-09T02:53:52.306Z,8.53
2018-10-09T02:56:26.058Z,8.40
2018-10-09T02:59:00.182Z,9.20
2018-10-09T03:01:34.085Z,8.63
2018-10-09T03:04:08.045Z,8.30
2018-10-09T03:06:41.446Z,9.17
2018-10-09T03:09:15.256Z,7.90
2018-10-09T03:11:49.332Z,7.10
2018-10-09T03:14:23.387Z,7.60
2018-10-09T03:16:56.628Z,7.80
2018-10-09T03:19:30.215Z,8.60
2018-10-09T03:22:03.997Z,7.00
2018-10-09T03:24:38.013Z,7.20
2018-10-09T03:27:11.499Z,6.72
2018-10-09T03:29:45.298Z,7.92
2018-10-09T03:32:19.231Z,7.50
2018-10-09T03:34:53.135Z,8.03
2018-10-09T03:37:27.244Z,7.78
2018-10-09T03:40:01.100Z,7.73
2018-10-09T03:42:35.042Z,7.67
2018-10-09T03:45:09.375Z,8.53
2018-10-09T03:47:43.121Z,8.33
2018-10-09T03:50:17.751Z,8.60
2018-10-09T03:52:51.528Z,7.33
2018-10-09T03:55:27.432Z,7.40
2018-10-09T03:58:01.636Z,7.78
2018-10-09T04:00:35.718Z,9.20
2018-10-09T04:03:09.362Z,9.43
2018-10-09T04:05:43.670Z,12.27
2018-10-09T04:08:17.398Z,10.07
2018-10-09T04:10:51.444Z,10.67
2018-10-09T04:13:25.394Z,10.77
2018-10-09T04:15:59.049Z,10.03
2018-10-09T04:18:33.049Z,12.80
2018-10-09T04:21:07.085Z,12.17
2018-10-09T04:23:41.208Z,10.73
2018-10-09T04:26:14.766Z,10.17
2018-10-09T04:28:49.012Z,11.38
2018-10-09T04:31:22.674Z,9.73
2018-10-09T04:34:11.522Z,10.13
2018-10-09T04:36:45.243Z,12.40
2018-10-09T04:39:19.168Z,12.17
2018-10-09T04:41:52.690Z,12.37
2018-10-09T04:44:26.864Z,11.83
2018-10-09T04:47:00.640Z,12.23
2018-10-09T04:49:34.625Z,10.70
2018-10-09T04:52:14.734Z,11.50
2018-10-09T04:54:50.164Z,10.98
2018-10-09T04:57:23.923Z,11.60
2018-10-09T04:59:57.668Z,11.10
2018-10-09T05:02:31.722Z,10.37
2018-10-09T05:05:05.650Z,9.63
2018-10-09T05:07:40.114Z,9.87
2018-10-09T05:10:13.718Z,10.07
2018-10-09T05:12:47.780Z,8.98
2018-10-09T05:15:21.658Z,9.70
2018-10-09T05:17:55.752Z,10.28
2018-10-09T05:20:29.585Z,10.53
2018-10-09T05:23:04.552Z,9.95
2018-10-09T05:25:38.341Z,11.75
2018-10-09T05:28:12.867Z,11.48
2018-10-09T05:30:47.818Z,11.22
2018-10-09T05:33:22.959Z,11.90
2018-10-09T05:35:56.853Z,13.60
2018-10-09T05:38:31.003Z,15.27
2018-10-09T05:41:04.921Z,18.90
2018-10-09T05:43:38.822Z,18.27
2018-10-09T05:46:12.342Z,18.67
2018-10-09T05:48:46.355Z,22.67
2018-10-09T05:51:20.248Z,20.97
2018-10-09T05:53:56.706Z,25.25
2018-10-09T05:56:30.495Z,23.10
2018-10-09T05:59:04.335Z,23.10
2018-10-09T06:01:38.171Z,24.13
2018-10-09T06:04:12.389Z,19.97
2018-10-09T06:06:46.498Z,19.33
2018-10-09T06:09:20.593Z,17.53
2018-10-09T06:11:54.354Z,17.80
2018-10-09T06:14:28.613Z,17.48
2018-10-09T06:17:02.487Z,17.83
2018-10-09T06:19:36.023Z,16.67
2018-10-09T06:22:10.099Z,15.57
2018-10-09T06:24:44.064Z,16.95
2018-10-09T06:27:18.147Z,15.87
2018-10-09T06:29:52.034Z,14.97
2018-10-09T06:32:26.393Z,15.07
2018-10-09T06:34:59.677Z,14.83
2018-10-09T06:37:34.661Z,13.97
2018-10-09T06:40:09.390Z,14.40
2018-10-09T06:42:43.460Z,13.87
2018-10-09T06:45:17.568Z,12.10
2018-10-09T06:47:51.402Z,14.17
2018-10-09T06:50:25.651Z,13.70
2018-10-09T06:52:59.894Z,14.10
2018-10-09T06:55:34.890Z,14.90
2018-10-09T06:58:08.934Z,15.50
2018-10-09T07:00:43.969Z,13.40
2018-10-09T07:03:17.778Z,13.00
2018-10-09T07:05:51.306Z,12.67
2018-10-09T07:08:25.363Z,12.67
2018-10-09T07:10:59.877Z,13.32
2018-10-09T07:13:33.833Z,13.43
2018-10-09T07:16:07.522Z,13.90
2018-10-09T07:18:41.862Z,14.07
2018-10-09T07:21:15.545Z,13.55
2018-10-09T07:23:50.088Z,13.20
2018-10-09T07:26:23.864Z,13.32
2018-10-09T07:28:58.195Z,13.00
2018-10-09T07:31:31.804Z,12.43
2018-10-09T07:34:06.025Z,12.53
2018-10-09T07:36:39.978Z,12.70
2018-10-09T07:39:15.736Z,11.85
2018-10-09T07:41:49.628Z,12.00
2018-10-09T07:44:23.123Z,12.53
2018-10-09T07:46:56.971Z,11.47
2018-10-09T07:49:30.612Z,11.70
2018-10-09T07:52:04.453Z,11.53
2018-10-09T07:54:38.666Z,10.98
2018-10-09T07:57:14.050Z,10.83
2018-10-09T07:59:48.465Z,10.73
2018-10-09T08:02:22.337Z,10.63
2018-10-09T08:04:56.426Z,11.77
2018-10-09T08:07:30.111Z,10.47
2018-10-09T08:10:04.118Z,11.07
2018-10-09T08:12:37.695Z,10.12
2018-10-09T08:15:12.525Z,10.20
2018-10-09T08:17:46.555Z,9.23
2018-10-09T08:20:21.380Z,9.57
2018-10-09T08:22:56.201Z,10.47
2018-10-09T08:25:30.164Z,10.37
2018-10-09T08:28:04.320Z,9.98
2018-10-09T08:30:38.167Z,8.80
2018-10-09T08:33:12.549Z,9.17
2018-10-09T08:35:45.898Z,10.07
2018-10-09T08:38:19.727Z,9.50
2018-10-09T08:40:54.359Z,9.23
2018-10-09T08:43:28.553Z,8.95
2018-10-09T08:46:03.153Z,9.80
2018-10-09T08:48:37.119Z,8.80
2018-10-09T08:51:10.954Z,8.48
2018-10-09T08:53:45.036Z,9.33
2018-10-09T08:56:18.968Z,8.60
2018-10-09T08:58:54.372Z,8.70
2018-10-09T09:01:28.689Z,8.23
2018-10-09T09:04:02.888Z,8.08
2018-10-09T09:06:37.668Z,7.87
2018-10-09T09:09:14.031Z,9.17
2018-10-09T09:11:47.994Z,7.60
2018-10-09T09:14:22.189Z,8.30
2018-10-09T09:16:56.346Z,7.70
2018-10-09T09:19:29.945Z,7.23
2018-10-09T09:22:03.744Z,7.45
2018-10-09T09:24:38.179Z,7.27
2018-10-09T09:27:12.148Z,7.28
2018-10-09T09:29:47.652Z,6.78
2018-10-09T09:32:21.630Z,6.62
2018-10-09T09:34:57.058Z,7.35
2018-10-09T09:37:30.914Z,7.22
2018-10-09T09:40:04.777Z,5.83
2018-10-09T09:42:38.873Z,6.70
2018-10-09T09:45:12.682Z,6.28
2018-10-09T09:47:46.321Z,6.62
2018-10-09T09:50:20.321Z,7.00
2018-10-09T09:52:54.433Z,6.73
2018-10-09T09:55:28.056Z,7.47
2018-10-09T09:58:02.325Z,6.86
2018-10-09T10:04:03.468Z,6.97
2018-10-09T10:06:37.281Z,6.72
2018-10-09T10:09:12.135Z,6.27
2018-10-09T10:11:45.818Z,6.10
2018-10-09T10:19:14.783Z,6.33
2018-10-09T10:21:48.237Z,6.83
2018-10-09T10:24:22.610Z,6.20
2018-10-09T10:26:56.935Z,6.90
2018-10-09T10:29:30.800Z,6.47
2018-10-09T10:32:04.836Z,9.30
2018-10-09T10:34:38.622Z,8.07
2018-10-09T10:37:12.477Z,7.83
2018-10-09T10:39:46.463Z,8.67
2018-10-09T10:42:20.282Z,12.00
2018-10-09T10:44:54.580Z,14.00
2018-10-09T10:47:28.832Z,13.20
2018-10-09T10:50:02.936Z,14.23
2018-10-09T10:52:37.199Z,12.87
2018-10-09T10:55:11.185Z,13.57
2018-10-09T10:57:45.464Z,14.17
2018-10-09T11:00:20.452Z,13.50
2018-10-09T11:02:55.658Z,13.90
2018-10-09T11:05:29.440Z,13.15
2018-10-09T11:08:03.307Z,12.63
2018-10-09T11:10:37.018Z,12.15
2018-10-09T11:13:11.216Z,11.60
2018-10-09T11:15:44.961Z,11.67
2018-10-09T11:18:18.700Z,11.67
2018-10-09T11:20:52.726Z,10.87
2018-10-09T11:23:26.506Z,11.40
2018-10-09T11:26:00.449Z,10.17
2018-10-09T11:28:34.885Z,9.33
2018-10-09T11:31:09.011Z,8.80
2018-10-09T11:33:44.326Z,8.33
2018-10-09T11:36:17.831Z,7.87
2018-10-09T11:38:52.407Z,8.13
2018-10-09T11:41:26.241Z,8.57
2018-10-09T11:44:00.642Z,11.00
2018-10-09T11:46:35.844Z,8.93
2018-10-09T11:49:18.088Z,9.40
2018-10-09T11:51:51.875Z,11.17
2018-10-09T11:54:26.392Z,10.80
2018-10-09T11:57:00.237Z,11.17
2018-10-09T11:59:34.400Z,10.20
2018-10-09T12:02:08.609Z,11.30
2018-10-09T12:04:43.643Z,11.07
2018-10-09T12:07:17.643Z,11.55
2018-10-09T12:09:51.981Z,12.43
2018-10-09T12:12:27.146Z,12.60
2018-10-09T12:15:01.214Z,12.20
2018-10-09T12:17:35.340Z,12.03
2018-10-09T12:20:09.763Z,13.10
2018-10-09T12:22:44.515Z,11.87
2018-10-09T12:25:18.862Z,14.18
2018-10-09T12:27:52.995Z,14.00
2018-10-09T12:30:27.683Z,14.97
2018-10-09T12:33:01.516Z,13.77
2018-10-09T12:35:35.970Z,13.47
2018-10-09T12:38:10.879Z,14.53
2018-10-09T12:40:45.637Z,14.43
2018-10-09T12:43:20.426Z,14.97
2018-10-09T12:46:02.960Z,16.70
2018-10-09T12:48:43.832Z,16.60
2018-10-09T12:51:17.983Z,15.63
2018-10-09T12:53:51.702Z,16.23
2018-10-09T12:56:26.050Z,16.33
2018-10-09T12:59:01.296Z,15.80
2018-10-09T13:01:39.919Z,15.63
2018-10-09T13:04:33.197Z,15.67
2018-10-09T13:07:07.950Z,13.77
2018-10-09T13:09:42.206Z,15.37
2018-10-09T13:12:16.641Z,14.30
2018-10-09T13:14:51.848Z,14.03
2018-10-09T13:17:26.361Z,13.50
2018-10-09T13:20:06.506Z,14.90
2018-10-09T13:22:40.792Z,14.97
2018-10-09T13:25:14.495Z,13.28
2018-10-09T13:27:48.658Z,12.97
2018-10-09T13:30:22.901Z,12.93
2018-10-09T13:32:57.124Z,13.70
2018-10-09T13:35:31.387Z,13.23
2018-10-09T13:38:05.642Z,13.03
2018-10-09T13:40:39.898Z,13.30
2018-10-09T13:43:14.037Z,13.83
2018-10-09T13:45:48.245Z,14.07
2018-10-09T13:48:22.412Z,13.47
2018-10-09T13:50:57.022Z,12.77
2018-10-09T13:53:31.021Z,13.13
2018-10-09T13:56:05.058Z,15.53
2018-10-09T13:58:39.021Z,16.23
2018-10-09T14:01:13.829Z,15.03
2018-10-09T14:03:48.741Z,15.77
2018-10-09T14:06:23.028Z,15.23
2018-10-09T14:08:57.956Z,14.40
2018-10-09T14:11:31.998Z,14.93
2018-10-09T14:14:06.244Z,14.93
2018-10-09T14:16:40.553Z,15.73
2018-10-09T14:19:14.581Z,14.17
2018-10-09T14:21:48.650Z,13.47
2018-10-09T14:24:22.697Z,14.07
2018-10-09T14:26:57.066Z,17.50
2018-10-09T14:29:32.410Z,14.75
2018-10-09T14:32:06.357Z,12.83
2018-10-09T14:34:40.385Z,12.60
2018-10-09T14:37:14.184Z,14.07
2018-10-09T14:39:49.503Z,14.67
2018-10-09T14:42:23.917Z,13.20
2018-10-09T14:44:58.036Z,13.03
2018-10-09T14:47:33.498Z,12.17
2018-10-09T14:50:07.558Z,13.65
2018-10-09T14:52:42.292Z,15.40
2018-10-09T14:55:16.595Z,13.10
2018-10-09T14:57:51.743Z,12.93
2018-10-09T15:00:25.742Z,12.90
2018-10-09T15:03:00.072Z,12.57
2018-10-09T15:05:33.763Z,12.70
2018-10-09T15:08:08.158Z,13.50
2018-10-09T15:10:43.258Z,13.90
2018-10-09T15:13:17.592Z,13.57
2018-10-09T15:15:51.742Z,13.60
2018-10-09T15:18:26.012Z,15.35
2018-10-09T15:21:00.293Z,14.50
2018-10-09T15:23:34.635Z,13.47
2018-10-09T15:26:09.079Z,13.40
2018-10-09T15:28:43.710Z,13.73
2018-10-09T15:31:18.010Z,13.57
2018-10-09T15:33:52.270Z,13.37
2018-10-09T15:36:26.308Z,13.83
2018-10-09T15:39:00.358Z,13.55
2018-10-09T15:41:35.362Z,14.10
2018-10-09T15:44:10.037Z,14.13
2018-10-09T15:46:44.055Z,14.67
2018-10-09T15:49:19.008Z,14.00
2018-10-09T15:51:54.093Z,13.87
2018-10-09T15:54:28.244Z,14.33
2018-10-09T15:57:02.960Z,14.63
2018-10-09T15:59:37.219Z,14.35
2018-10-09T16:02:11.084Z,14.57
2018-10-09T16:04:45.941Z,15.50
2018-10-09T16:07:20.447Z,15.00
2018-10-09T16:09:54.657Z,14.20
2018-10-09T16:12:30.675Z,14.60
2018-10-09T16:15:04.556Z,14.20
2018-10-09T16:17:38.566Z,14.23
2018-10-09T16:20:12.588Z,13.67
2018-10-09T16:22:46.713Z,13.90
2018-10-09T16:25:21.012Z,14.50
2018-10-09T16:27:55.344Z,14.73
2018-10-09T16:30:28.785Z,15.25
2018-10-09T16:33:03.577Z,14.83
2018-10-09T16:35:38.225Z,15.20
2018-10-09T16:38:12.228Z,14.57
2018-10-09T16:40:47.482Z,14.20
2018-10-09T16:43:21.578Z,14.53
2018-10-09T16:45:55.777Z,14.93
2018-10-09T16:48:30.589Z,15.50
2018-10-09T16:51:06.645Z,14.67
2018-10-09T16:53:40.861Z,19.00
2018-10-09T16:56:16.137Z,24.73
2018-10-09T16:58:50.251Z,23.18
2018-10-09T17:01:24.580Z,20.67
2018-10-09T17:03:58.486Z,16.80
2018-10-09T17:06:32.814Z,16.40
2018-10-09T17:14:03.733Z,12.90
2018-10-09T17:16:37.648Z,13.13
2018-10-09T17:19:12.288Z,14.07
2018-10-09T17:21:46.414Z,15.67
2018-10-09T17:24:20.066Z,15.27
2018-10-09T17:26:54.660Z,13.60
2018-10-09T17:29:29.056Z,15.93
2018-10-09T17:32:03.122Z,16.37
2018-10-09T17:34:36.958Z,15.25
2018-10-09T17:37:10.819Z,17.60
2018-10-09T17:39:44.935Z,16.87
2018-10-09T17:42:19.170Z,16.37
2018-10-09T17:44:53.733Z,16.93
2018-10-09T17:47:28.260Z,16.40
2018-10-09T17:50:03.405Z,18.77
2018-10-09T17:52:37.667Z,17.13
2018-10-09T17:55:11.794Z,18.97
2018-10-09T17:57:46.546Z,15.87
2018-10-09T18:00:20.516Z,16.20
2018-10-09T18:02:54.908Z,17.53
2018-10-09T18:05:29.013Z,15.83
2018-10-09T18:08:03.207Z,16.37
2018-10-09T18:10:37.556Z,16.07
2018-10-09T18:13:11.965Z,16.42
2018-10-09T18:15:47.272Z,16.30
2018-10-09T18:18:21.327Z,15.53
2018-10-09T18:20:55.292Z,15.27
2018-10-09T18:23:29.609Z,16.43
2018-10-09T18:26:03.868Z,15.27
2018-10-09T18:28:37.809Z,15.37
2018-10-09T18:31:11.953Z,16.40
2018-10-09T18:33:45.841Z,15.50
2018-10-09T18:36:19.670Z,16.10
2018-10-09T18:38:53.370Z,14.37
2018-10-09T18:41:27.462Z,16.17
2018-10-09T18:44:01.851Z,15.43
2018-10-09T18:46:35.873Z,16.10
2018-10-09T18:49:10.259Z,15.40
2018-10-09T18:51:44.332Z,15.43
2018-10-09T18:54:18.577Z,15.25
2018-10-09T18:56:52.801Z,15.13
2018-10-09T18:59:26.537Z,15.93
2018-10-09T19:02:00.443Z,15.67
2018-10-09T19:04:34.514Z,16.17
2018-10-09T19:07:08.737Z,15.03
2018-10-09T19:09:42.968Z,14.87
2018-10-09T19:12:17.600Z,14.43
2018-10-09T19:14:52.604Z,14.37
2018-10-09T19:17:27.173Z,14.77
2018-10-09T19:20:01.373Z,15.18
2018-10-09T19:22:35.532Z,14.53
2018-10-09T19:25:09.554Z,14.83
2018-10-09T19:27:43.557Z,14.68
2018-10-09T19:30:17.904Z,14.93
2018-10-09T19:32:54.010Z,15.17
2018-10-09T19:35:28.303Z,15.83
2018-10-09T19:38:02.333Z,16.47
2018-10-09T19:40:36.869Z,15.23
2018-10-09T19:43:10.534Z,15.83
2018-10-09T19:45:45.070Z,15.72
2018-10-09T19:48:19.305Z,16.55
2018-10-09T19:50:53.836Z,15.27
2018-10-09T19:53:28.285Z,16.17
2018-10-09T19:56:02.663Z,14.07
2018-10-09T20:03:31.738Z,13.87
2018-10-09T20:06:05.134Z,15.00
2018-10-09T20:08:39.494Z,14.17
2018-10-09T20:11:14.451Z,14.63
2018-10-09T20:13:48.883Z,14.03
2018-10-09T20:16:23.076Z,14.37
2018-10-09T20:18:57.849Z,14.47
2018-10-09T20:21:32.100Z,14.63
2018-10-09T20:24:06.406Z,14.95
2018-10-09T20:26:40.527Z,14.58
2018-10-09T20:29:14.271Z,15.43
2018-10-09T20:31:48.608Z,14.57
2018-10-09T20:34:22.818Z,14.00
2018-10-09T20:36:56.719Z,14.23
2018-10-09T20:39:30.719Z,14.77
2018-10-09T20:42:05.797Z,14.63
2018-10-09T20:44:40.565Z,14.13
2018-10-09T20:47:14.228Z,14.23
2018-10-09T20:49:48.413Z,16.30
2018-10-09T20:52:22.276Z,15.70
2018-10-09T20:54:56.468Z,15.47
2018-10-09T20:57:30.218Z,14.73
2018-10-09T21:00:04.447Z,14.03
2018-10-09T21:02:38.658Z,14.53
2018-10-09T21:05:11.360Z,13.60
2018-10-09T21:07:46.861Z,14.93
2018-10-09T21:10:21.383Z,15.87
2018-10-09T21:12:54.986Z,14.73
2018-10-09T21:15:28.628Z,14.85
2018-10-09T21:18:02.854Z,14.25
2018-10-09T21:20:37.922Z,15.43
2018-10-09T21:23:12.556Z,15.80
2018-10-09T21:25:46.996Z,16.23
2018-10-09T21:28:21.932Z,16.07
2018-10-09T21:30:56.241Z,17.23
2018-10-09T21:33:30.253Z,18.03
2018-10-09T21:36:04.299Z,16.77
2018-10-09T21:38:38.417Z,15.25
2018-10-09T21:41:12.669Z,14.87
2018-10-09T21:43:47.182Z,16.40
2018-10-09T21:46:21.174Z,15.65
2018-10-09T21:48:55.728Z,15.83
2018-10-09T21:51:29.949Z,15.30
2018-10-09T21:54:04.300Z,15.77
2018-10-09T21:56:46.161Z,15.10
2018-10-09T21:59:20.812Z,16.37
2018-10-09T22:01:54.415Z,18.70
2018-10-09T22:04:29.002Z,18.00
2018-10-09T22:07:02.953Z,16.80
2018-10-09T22:09:37.587Z,16.83
2018-10-09T22:12:11.262Z,17.30
2018-10-09T22:14:45.110Z,18.57
2018-10-09T22:17:19.426Z,19.13
2018-10-09T22:19:53.836Z,16.87
2018-10-09T22:27:27.476Z,15.27
2018-10-09T22:30:01.592Z,15.47
2018-10-09T22:32:35.741Z,15.75
2018-10-09T22:35:09.652Z,16.57
2018-10-09T22:37:43.536Z,17.43
2018-10-09T22:40:19.770Z,16.97
2018-10-09T22:42:53.703Z,16.43
2018-10-09T22:45:27.867Z,17.77
2018-10-09T22:48:02.222Z,16.17
2018-10-09T22:50:36.423Z,16.77
2018-10-09T22:53:11.635Z,17.30
2018-10-09T22:55:45.668Z,16.55
2018-10-09T22:58:19.495Z,15.73
2018-10-09T23:00:53.422Z,19.27
2018-10-09T23:03:29.125Z,20.37
2018-10-09T23:06:02.933Z,21.97
2018-10-09T23:08:36.878Z,21.27
2018-10-09T23:11:11.634Z,22.10
2018-10-09T23:13:45.039Z,22.57
2018-10-09T23:16:19.430Z,26.40
2018-10-09T23:18:53.276Z,23.60
2018-10-09T23:21:27.388Z,21.37
2018-10-09T23:24:02.843Z,21.53
2018-10-09T23:26:36.582Z,22.07
2018-10-09T23:29:10.591Z,21.27
2018-10-09T23:31:44.863Z,20.90
2018-10-09T23:34:19.508Z,18.77
2018-10-09T23:36:53.381Z,19.37
2018-10-09T23:39:27.634Z,20.20
2018-10-09T23:42:02.063Z,19.55
2018-10-09T23:44:35.844Z,22.15
2018-10-09T23:47:10.167Z,21.57
2018-10-09T23:49:44.358Z,19.32
2018-10-09T23:52:18.896Z,19.10
2018-10-09T23:54:53.671Z,19.03
2018-10-09T23:57:27.693Z,24.30
